KMZZ Airport (Marion Muni) Information

FAA: MZZ - ICAO: KMZZ

KMZZ Airport Location

State Indiana
County Grant
City Marion
KMZZ Airport is 3 miles southwest of Marion, IN.
Latitude 40-29-23.7000N
Longitude 085-40-47.2000W
Elevation 858ft

KMZZ Airport METARs

METAR KMZZ 262355Z AUTO 24006KT 10SM OVC090 M02/M06 A3013 RMK AO2 T10181065 10267 21066
Altimeter 30.13"
Temperature -1.8°C (28.8°F)
Wind 240° at 6KT
Clouds overcast at 9,000ft
Visibility 10.0mi
Time observed: 2021-11-26T23:55:00Z

KMZZ Airport Details

Status Operational
Activation February 1938
Ownership Public
Usage Public
Chart CHICAGO
ATC on-site No
Beacon schedule sunset-sunrise
Beacon color clear green

KMZZ Airport Contacts

Owner CITY OF MARION BOAC
Owner address 5904 S WESTERN AVE, MARION, IN 46953
Owner phone 765-674-7777
Manager KEVIN BAILEY
Manager address 14705 BELSHAW RD, LOWELL, IN 46356
Manager phone (219) 614-6633

KMZZ Airport (Marion Muni) Radio Frequencies

KMZZ (Airport) Radio Frequencies

UNICOM 122.7
Common traffic advisory frequency (CTAF) 122.7